CheckWX is a tool to help pilots better visualize weather data.  It is not intended as a substitute for an official pre-flight weather briefing.

08:37:00 UTC

U42 METAR
South Valley Regional Airport
Salt Lake City, Utah, USA
Current

22 mins ago

KU42 170815Z AUTO 34004KT 10SM CLR 21/11 A2994 RMK AO1 T02090109
Observed
Jul-17 @ 08:15 UTC
Wind
  • 340° at 4 KTS
Visibility
10 SM
Flight Rules
VFR
Cloud Levels
  • Clear skies
Temperature
21°C / 70°F
Dewpoint
11°C / 52°F
Humidity
53%
Altimeter
29.94" Hg
Pressure
1013.92 hPa
Previous

42 mins ago

KU42 170755Z AUTO 00000KT 10SM CLR 21/10 A2994 RMK AO1 T02130101
Observed
Jul-17 @ 07:55 UTC
Visibility
10 SM
Flight Rules
VFR
Cloud Levels
  • Clear skies
Temperature
21°C / 70°F
Dewpoint
10°C / 50°F
Humidity
50%
Altimeter
29.94" Hg
Pressure
1013.92 hPa
Previous

1 hour ago

KU42 170735Z AUTO 00000KT 10SM CLR 21/10 A2993 RMK AO1 T02120099
Observed
Jul-17 @ 07:35 UTC
Visibility
10 SM
Flight Rules
VFR
Cloud Levels
  • Clear skies
Temperature
21°C / 70°F
Dewpoint
10°C / 50°F
Humidity
50%
Altimeter
29.93" Hg
Pressure
1013.52 hPa